Tupelo, MS (38804)

11:45 AM CDT on March 30, 2017 (GMT -0500)
Lee Acres | | Change Station

Elev 340 ft 34.24 °N, 88.72 °W | Updated 20 seconds ago

Partly Cloudy
Partly Cloudy
72.1 °F
Feels Like 76 °F
N
2.0
Wind Variable Wind from SE
Gusts 15.0 mph

Today
High -- | Low -- °F
--% Chance of Precip.
Yesterday
High -- | Low -- °F
Precip. -- in
Pressure 29.76 in
Visibility 10.0 miles
Clouds Clear
Heat Index 76 °F
Dew Point 59 °F
Humidity 63%
Rainfall 0.07 in
Snow Depth Not available.
6:44 AM 7:14 PM
Waxing Crescent, 9% visible
METAR KTUP 301553Z 17014G24KT 10SM CLR 22/11 A2977 RMK AO2 PK WND 18032/1505 SLP078 T02220111
Pressure 29.76 in
Visibility 10.0 miles
Clouds Clear
Heat Index 76 °F
Dew Point 59 °F
Humidity 63%
Rainfall 0.07 in
Snow Depth Not available.
6:44 AM 7:14 PM
Waxing Crescent, 9% visible
METAR KTUP 301553Z 17014G24KT 10SM CLR 22/11 A2977 RMK AO2 PK WND 18032/1505 SLP078 T02220111

Get Severe Weather Alerts

Thanks for signing up!

Be on the lookout for a verification email in your inbox.

You'll start receiving the daily forecast at 8 AM.

×

10-Day Weather Forecast

Almanac

Astronomy

Mar. 30, 2017 Rise Set
Actual Time
Civil Twilight
Nautical Twilight
Astronomical Twilight
Moon
Length of Visible Light
Length of Day
Tomorrow will be .
, % of the Moon is Illuminated

Today's Extremes

State Highs State Lows

Community

WunderPhotos

Upload Photos

1,962,540 photos uploaded!

WunderBlog® & News

Nearby

Air Quality

  Air Quality AQ Index Pollutant
Not available.

Snow Depth

Station Depth Elevation

Earthquake Activity

City Distance Mag. Time & Date
Minimum magnitude displayed is 2.5.

Earthquake Activity

City Distance Mag. Time & Date
Minimum magnitude displayed is 2.5.

Coastal Water Temperatures

Place Temperature

Stations

Nearby Weather Stations

Station Location Temp. Windchill Dew Point Humidity Wind Precip. Elev Updated Type
                   

Watches & Warnings

There are currently no watches in effect.